createdAt,value
2023-05-24T00:01:10.495Z,100188.59
2023-05-24T00:03:38.932Z,100193.05
2023-05-24T00:06:06.743Z,100189.89
2023-05-24T00:08:34.288Z,100191.52
2023-05-24T00:11:01.414Z,100200.16
2023-05-24T00:13:28.345Z,100197.20
2023-05-24T00:15:55.322Z,100201.46
2023-05-24T00:18:23.072Z,100201.71
2023-05-24T00:20:51.418Z,100203.02
2023-05-24T00:23:18.462Z,100199.13
2023-05-24T00:25:45.456Z,100202.29
2023-05-24T00:28:12.413Z,100201.55
2023-05-24T00:30:39.394Z,100204.66
2023-05-24T00:33:06.615Z,100206.73
2023-05-24T00:35:33.686Z,100205.32
2023-05-24T00:38:00.614Z,100207.83
2023-05-24T00:40:27.618Z,100209.76
2023-05-24T00:42:54.545Z,100208.16
2023-05-24T00:45:21.497Z,100205.52
2023-05-24T00:47:48.500Z,100213.29
2023-05-24T00:50:16.762Z,100209.80
2023-05-24T00:52:44.718Z,100208.90
2023-05-24T00:55:12.384Z,100207.57
2023-05-24T00:57:40.694Z,100206.23
2023-05-24T01:00:08.424Z,100208.21
2023-05-24T01:02:35.653Z,100210.49
2023-05-24T01:05:03.957Z,100215.60
2023-05-24T01:07:43.230Z,100218.27
2023-05-24T01:10:40.599Z,100218.09
2023-05-24T01:13:33.953Z,100218.09
2023-05-24T01:16:19.545Z,100220.05
2023-05-24T01:18:57.397Z,100222.18
2023-05-24T01:21:30.396Z,100222.19
2023-05-24T01:24:09.391Z,100222.53
2023-05-24T01:26:50.528Z,100224.29
2023-05-24T01:29:18.032Z,100219.88
2023-05-24T01:31:45.273Z,100224.60
2023-05-24T01:34:12.409Z,100225.98
2023-05-24T01:36:39.282Z,100225.78
2023-05-24T01:39:06.478Z,100229.66
2023-05-24T01:41:47.254Z,100233.16
2023-05-24T01:44:34.440Z,100232.48
2023-05-24T01:47:37.772Z,100230.61
2023-05-24T01:50:18.799Z,100232.71
2023-05-24T01:52:49.551Z,100229.38
2023-05-24T01:55:18.138Z,100230.92
2023-05-24T01:57:51.056Z,100228.09
2023-05-24T02:00:20.543Z,100224.38
2023-05-24T02:02:51.158Z,100224.37
2023-05-24T02:05:18.425Z,100222.43
2023-05-24T02:07:45.732Z,100225.05
2023-05-24T02:10:12.729Z,100224.54
2023-05-24T02:12:39.681Z,100221.18
2023-05-24T02:15:07.119Z,100219.95
2023-05-24T02:17:35.284Z,100221.53
2023-05-24T02:20:03.537Z,100226.65
2023-05-24T02:22:30.519Z,100224.02
2023-05-24T02:24:57.418Z,100224.89
2023-05-24T02:27:24.406Z,100224.01
2023-05-24T02:29:52.444Z,100225.42
2023-05-24T02:32:19.387Z,100226.16
2023-05-24T02:34:46.345Z,100226.17
2023-05-24T02:37:14.414Z,100227.23
2023-05-24T02:39:41.687Z,100229.69
2023-05-24T02:42:08.680Z,100226.87
2023-05-24T02:44:35.613Z,100226.69
2023-05-24T02:47:02.480Z,100223.15
2023-05-24T02:49:31.507Z,100226.68
2023-05-24T02:51:58.939Z,100227.75
2023-05-24T02:54:26.048Z,100232.85
2023-05-24T02:56:53.080Z,100230.39
2023-05-24T02:59:20.836Z,100230.92
2023-05-24T03:01:47.706Z,100234.48
2023-05-24T03:04:14.899Z,100233.98
2023-05-24T03:06:41.867Z,100235.05
2023-05-24T03:09:08.743Z,100240.51
2023-05-24T03:11:35.686Z,100237.34
2023-05-24T03:14:02.613Z,100238.95
2023-05-24T03:16:29.569Z,100241.73
2023-05-24T03:18:56.599Z,100241.54
2023-05-24T03:21:24.703Z,100241.00
2023-05-24T03:23:51.753Z,100239.79
2023-05-24T03:26:18.936Z,100244.00
2023-05-24T03:28:47.140Z,100244.38
2023-05-24T03:31:14.050Z,100244.20
2023-05-24T03:33:41.109Z,100245.77
2023-05-24T03:36:08.085Z,100245.23
2023-05-24T03:38:35.036Z,100250.65
2023-05-24T03:41:02.040Z,100248.00
2023-05-24T03:43:29.103Z,100252.73
2023-05-24T03:45:56.495Z,100253.23
2023-05-24T03:48:23.569Z,100251.86
2023-05-24T03:50:50.877Z,100257.64
2023-05-24T03:53:17.801Z,100259.56
2023-05-24T03:55:44.861Z,100259.39
2023-05-24T03:58:12.301Z,100265.70
2023-05-24T04:00:39.176Z,100267.63
2023-05-24T04:03:06.321Z,100267.98
2023-05-24T04:05:33.438Z,100268.66
2023-05-24T04:08:00.317Z,100269.38
2023-05-24T04:10:27.357Z,100267.11
2023-05-24T04:12:56.537Z,100271.52
2023-05-24T04:15:23.868Z,100270.81
2023-05-24T04:17:54.545Z,100271.53
2023-05-24T04:20:27.038Z,100272.78
2023-05-24T04:22:55.740Z,100274.20
2023-05-24T04:25:22.774Z,100276.13
2023-05-24T04:27:49.835Z,100281.42
2023-05-24T04:30:16.978Z,100284.20
2023-05-24T04:32:44.162Z,100283.65
2023-05-24T04:35:11.764Z,100286.45
2023-05-24T04:37:40.010Z,100288.70
2023-05-24T04:40:08.121Z,100284.63
2023-05-24T04:42:35.312Z,100285.15
2023-05-24T04:45:02.568Z,100284.81
2023-05-24T04:47:29.611Z,100289.40
2023-05-24T04:49:56.570Z,100291.33
2023-05-24T04:52:23.534Z,100297.65
2023-05-24T04:54:50.748Z,100296.40
2023-05-24T04:57:17.691Z,100300.77
2023-05-24T04:59:44.690Z,100303.02
2023-05-24T05:02:11.652Z,100301.11
2023-05-24T05:04:38.779Z,100305.14
2023-05-24T05:07:05.815Z,100304.80
2023-05-24T05:09:32.727Z,100308.46
2023-05-24T05:12:00.677Z,100307.78
2023-05-24T05:14:28.648Z,100309.20
2023-05-24T05:16:55.643Z,100309.01
2023-05-24T05:19:23.802Z,100314.64
2023-05-24T05:21:51.225Z,100313.78
2023-05-24T05:24:18.628Z,100313.45
2023-05-24T05:26:45.679Z,100315.56
2023-05-24T05:29:12.566Z,100315.79
2023-05-24T05:31:39.745Z,100316.52
2023-05-24T05:34:10.475Z,100315.11
2023-05-24T05:36:40.505Z,100317.59
2023-05-24T05:39:11.593Z,100321.27
2023-05-24T05:41:39.133Z,100324.43
2023-05-24T05:44:06.228Z,100321.95
2023-05-24T05:46:33.467Z,100325.27
2023-05-24T05:49:00.557Z,100328.97
2023-05-24T05:51:27.531Z,100328.81
2023-05-24T05:53:54.525Z,100334.26
2023-05-24T05:56:21.403Z,100331.08
2023-05-24T05:58:48.395Z,100333.54
2023-05-24T06:01:15.680Z,100341.05
2023-05-24T06:03:42.752Z,100342.25
2023-05-24T06:06:09.952Z,100344.39
2023-05-24T06:08:40.469Z,100343.52
2023-05-24T06:11:07.573Z,100345.80
2023-05-24T06:13:34.526Z,100349.50
2023-05-24T06:16:01.664Z,100353.90
2023-05-24T06:18:30.077Z,100355.14
2023-05-24T06:20:56.996Z,100359.69
2023-05-24T06:23:24.666Z,100363.88
2023-05-24T06:25:51.576Z,100366.16
2023-05-24T06:28:18.484Z,100365.64
2023-05-24T06:30:47.150Z,100367.59
2023-05-24T06:33:14.070Z,100367.95
2023-05-24T06:35:41.054Z,100371.96
2023-05-24T06:38:08.147Z,100375.30
2023-05-24T06:40:35.535Z,100381.44
2023-05-24T06:43:06.753Z,100383.38
2023-05-24T06:45:33.914Z,100386.52
2023-05-24T06:48:01.139Z,100392.35
2023-05-24T06:50:28.363Z,100394.81
2023-05-24T06:52:55.335Z,100396.92
2023-05-24T06:55:22.531Z,100399.04
2023-05-24T06:57:49.501Z,100400.63
2023-05-24T07:00:17.077Z,100396.04
2023-05-24T07:02:44.144Z,100399.55
2023-05-24T07:05:13.674Z,100396.58
2023-05-24T07:07:42.688Z,100401.14
2023-05-24T07:10:11.169Z,100406.55
2023-05-24T07:12:38.237Z,100409.72
2023-05-24T07:15:06.659Z,100416.91
2023-05-24T07:17:33.744Z,100426.05
2023-05-24T07:20:01.986Z,100429.55
2023-05-24T07:22:31.194Z,100436.21
2023-05-24T07:24:58.145Z,100440.96
2023-05-24T07:27:25.038Z,100444.82
2023-05-24T07:29:51.952Z,100448.86
2023-05-24T07:32:18.973Z,100451.67
2023-05-24T07:34:45.952Z,100447.11
2023-05-24T07:37:12.911Z,100449.77
2023-05-24T07:39:39.790Z,100446.23
2023-05-24T07:42:06.895Z,100445.54
2023-05-24T07:44:34.702Z,100448.67
2023-05-24T07:47:02.275Z,100453.94
2023-05-24T07:49:29.553Z,100455.84
2023-05-24T07:51:59.168Z,100458.11
2023-05-24T07:54:26.211Z,100461.79
2023-05-24T07:56:53.151Z,100464.59
2023-05-24T07:59:20.309Z,100468.97
2023-05-24T08:01:47.289Z,100472.13
2023-05-24T08:04:14.415Z,100470.38
2023-05-24T08:06:41.541Z,100470.88
2023-05-24T08:09:08.455Z,100476.84
2023-05-24T08:11:35.445Z,100478.58
2023-05-24T08:14:03.154Z,100492.80
2023-05-24T08:16:31.287Z,100495.95
2023-05-24T08:18:58.296Z,100497.72
2023-05-24T08:21:25.730Z,100502.81
2023-05-24T08:23:52.708Z,100505.29
2023-05-24T08:26:20.526Z,100510.02
2023-05-24T08:28:47.694Z,100513.48
2023-05-24T08:31:15.492Z,100517.72
2023-05-24T08:33:43.764Z,100513.48
2023-05-24T08:36:10.787Z,100504.84
2023-05-24T08:38:37.676Z,100503.07
2023-05-24T08:41:09.051Z,100500.78
2023-05-24T08:43:37.852Z,100502.36
2023-05-24T08:46:05.966Z,100506.55
2023-05-24T08:48:40.172Z,100503.88
2023-05-24T08:51:07.348Z,100501.91
2023-05-24T08:53:37.199Z,100504.00
2023-05-24T08:56:04.505Z,100509.61
2023-05-24T08:58:32.034Z,100511.56
2023-05-24T09:01:01.750Z,100515.61
2023-05-24T09:03:29.765Z,100520.04
2023-05-24T09:05:57.586Z,100526.39
2023-05-24T09:08:25.498Z,100524.49
2023-05-24T09:10:54.818Z,100530.11
2023-05-24T09:13:26.877Z,100534.86
2023-05-24T09:20:40.029Z,100541.67
2023-05-24T09:23:08.382Z,100552.55
2023-05-24T09:25:35.726Z,100546.77
2023-05-24T09:28:10.811Z,100551.52
2023-05-24T09:35:02.741Z,100566.87
2023-05-24T09:38:04.992Z,100560.55
2023-05-24T09:40:32.378Z,100564.25
2023-05-24T09:43:09.724Z,100563.02
2023-05-24T09:45:49.856Z,100566.88
2023-05-24T09:49:58.712Z,100569.52
2023-05-24T09:52:29.659Z,100571.81
2023-05-24T09:54:59.303Z,100571.45
2023-05-24T09:58:22.552Z,100571.27
2023-05-24T10:00:51.170Z,100571.43
2023-05-24T10:03:18.416Z,100575.33
2023-05-24T10:05:46.426Z,100579.02
2023-05-24T10:08:13.954Z,100581.98
2023-05-24T10:10:41.881Z,100589.72
2023-05-24T10:13:09.601Z,100596.23
2023-05-24T10:15:36.808Z,100600.08
2023-05-24T10:20:35.025Z,100601.13
2023-05-24T10:23:07.386Z,100600.59
2023-05-24T10:25:38.051Z,100602.56
2023-05-24T10:28:09.841Z,100602.55
2023-05-24T10:30:44.157Z,100605.02
2023-05-24T10:33:13.986Z,100609.05
2023-05-24T10:35:42.622Z,100607.67
2023-05-24T10:38:10.309Z,100607.86
2023-05-24T10:40:44.284Z,100606.80
2023-05-24T10:43:11.395Z,100607.50
2023-05-24T10:45:41.720Z,100610.48
2023-05-24T10:48:15.235Z,100613.98
2023-05-24T10:50:44.229Z,100614.84
2023-05-24T10:53:15.347Z,100618.18
2023-05-24T10:55:57.612Z,100613.09
2023-05-24T10:58:46.105Z,100622.93
2023-05-24T11:01:34.495Z,100620.10
2023-05-24T11:04:08.414Z,100622.36
2023-05-24T11:06:45.423Z,100624.27
2023-05-24T11:09:12.361Z,100630.38
2023-05-24T11:11:39.384Z,100627.37
2023-05-24T11:14:07.031Z,100629.99
2023-05-24T11:16:37.559Z,100632.45
2023-05-24T11:19:23.143Z,100633.50
2023-05-24T11:21:53.015Z,100631.73
2023-05-24T11:24:21.393Z,100630.50
2023-05-24T11:26:50.751Z,100629.07
2023-05-24T11:29:21.682Z,100628.52
2023-05-24T11:31:53.851Z,100628.70
2023-05-24T11:34:21.646Z,100626.45
2023-05-24T11:36:49.723Z,100630.88
2023-05-24T11:39:17.650Z,100631.20
2023-05-24T11:41:44.894Z,100632.05
2023-05-24T11:44:11.955Z,100637.64
2023-05-24T11:46:43.596Z,100642.90
2023-05-24T11:49:16.305Z,100645.91
2023-05-24T11:51:43.529Z,100646.11
2023-05-24T11:54:11.216Z,100642.77
2023-05-24T11:56:38.255Z,100643.98
2023-05-24T11:59:09.358Z,100643.27
2023-05-24T12:01:37.600Z,100640.09
2023-05-24T12:04:11.323Z,100641.49
2023-05-24T12:06:45.521Z,100633.60
2023-05-24T12:09:13.791Z,100641.32
2023-05-24T12:11:42.445Z,100641.98
2023-05-24T12:14:32.766Z,100646.00
2023-05-24T12:17:03.156Z,100648.48
2023-05-24T12:19:34.287Z,100647.77
2023-05-24T12:22:08.833Z,100654.75
2023-05-24T12:24:37.504Z,100653.86
2023-05-24T12:27:08.654Z,100652.45
2023-05-24T12:29:42.201Z,100655.46
2023-05-24T12:32:14.707Z,100655.27
2023-05-24T12:34:44.485Z,100656.13
2023-05-24T12:37:13.333Z,100657.86
2023-05-24T12:39:43.806Z,100658.07
2023-05-24T12:42:13.087Z,100660.70
2023-05-24T12:44:40.391Z,100661.20
2023-05-24T12:47:08.350Z,100657.84
2023-05-24T12:49:36.229Z,100659.94
2023-05-24T12:52:03.651Z,100661.54
2023-05-24T12:54:31.418Z,100669.78
2023-05-24T12:56:59.544Z,100670.48
2023-05-24T12:59:28.036Z,100669.95
2023-05-24T13:01:55.318Z,100668.70
2023-05-24T13:04:25.624Z,100672.23
2023-05-24T13:06:52.786Z,100668.86
2023-05-24T13:09:22.123Z,100672.24
2023-05-24T13:11:49.434Z,100667.86
2023-05-24T13:14:17.683Z,100666.11
2023-05-24T13:16:45.522Z,100674.40
2023-05-24T13:19:12.513Z,100671.58
2023-05-24T13:21:40.035Z,100671.38
2023-05-24T13:24:07.285Z,100664.69
2023-05-24T13:26:36.784Z,100663.45
2023-05-24T13:29:22.843Z,100670.86
2023-05-24T13:31:52.191Z,100670.48
2023-05-24T13:34:19.212Z,100667.66
2023-05-24T13:36:46.324Z,100668.19
2023-05-24T13:39:16.308Z,100671.67
2023-05-24T13:41:44.644Z,100670.79
2023-05-24T13:44:12.888Z,100672.73
2023-05-24T13:46:41.084Z,100677.29
2023-05-24T13:49:09.645Z,100674.09
2023-05-24T13:51:37.979Z,100677.28
2023-05-24T13:54:06.668Z,100679.23
2023-05-24T13:56:33.748Z,100678.92
2023-05-24T13:59:02.719Z,100676.61
2023-05-24T14:01:30.709Z,100675.52
2023-05-24T14:03:57.920Z,100679.05
2023-05-24T14:06:24.947Z,100681.89
2023-05-24T14:08:51.927Z,100680.33
2023-05-24T14:11:19.361Z,100673.11
2023-05-24T14:16:16.296Z,100672.03
2023-05-24T14:18:43.483Z,100672.36
2023-05-24T14:21:11.267Z,100673.23
2023-05-24T14:23:38.719Z,100674.99
2023-05-24T14:26:06.338Z,100677.63
2023-05-24T14:28:33.272Z,100677.10
2023-05-24T14:31:00.314Z,100678.68
2023-05-24T14:33:27.410Z,100676.89
2023-05-24T14:35:54.692Z,100677.24
2023-05-24T14:38:23.504Z,100679.35
2023-05-24T14:40:52.815Z,100682.14
2023-05-24T14:43:20.000Z,100682.13
2023-05-24T14:45:47.177Z,100682.14
2023-05-24T14:48:16.263Z,100682.83
2023-05-24T14:50:46.373Z,100685.61
2023-05-24T14:53:13.554Z,100687.34
2023-05-24T14:55:42.775Z,100686.60
2023-05-24T14:58:11.845Z,100684.09
2023-05-24T15:00:39.849Z,100684.59
2023-05-24T15:03:08.434Z,100685.29
2023-05-24T15:05:35.952Z,100685.08
2023-05-24T15:08:04.266Z,100686.27
2023-05-24T15:10:31.263Z,100689.77
2023-05-24T15:12:58.398Z,100689.05
2023-05-24T15:15:25.286Z,100691.52
2023-05-24T15:17:52.394Z,100690.43
2023-05-24T15:20:20.173Z,100691.27
2023-05-24T15:22:47.206Z,100694.77
2023-05-24T15:25:14.279Z,100697.76
2023-05-24T15:27:41.309Z,100699.65
2023-05-24T15:30:08.713Z,100702.95
2023-05-24T15:32:35.844Z,100702.56
2023-05-24T15:35:04.029Z,100701.82
2023-05-24T15:37:31.391Z,100699.48
2023-05-24T15:39:58.606Z,100696.09
2023-05-24T15:42:25.612Z,100700.30
2023-05-24T15:44:52.657Z,100700.79
2023-05-24T15:47:22.186Z,100697.40
2023-05-24T15:49:49.589Z,100696.32
2023-05-24T15:54:43.522Z,100700.06
2023-05-24T15:57:10.720Z,100700.44
2023-05-24T15:59:38.189Z,100702.73
2023-05-24T16:02:08.794Z,100698.21
2023-05-24T16:04:35.990Z,100701.63
2023-05-24T16:07:03.112Z,100700.79
2023-05-24T16:09:30.658Z,100699.39
2023-05-24T16:11:57.699Z,100700.26
2023-05-24T16:14:25.688Z,100701.48
2023-05-24T16:16:52.788Z,100704.66
2023-05-24T16:19:19.935Z,100708.00
2023-05-24T16:21:46.913Z,100708.86
2023-05-24T16:24:13.797Z,100710.92
2023-05-24T16:26:41.153Z,100713.95
2023-05-24T16:29:10.003Z,100712.23
2023-05-24T16:31:37.095Z,100716.65
2023-05-24T16:34:04.068Z,100722.64
2023-05-24T16:36:33.982Z,100717.53
2023-05-24T16:39:00.955Z,100719.66
2023-05-24T16:41:34.228Z,100718.98
2023-05-24T16:44:01.231Z,100723.05
2023-05-24T16:46:28.252Z,100727.48
2023-05-24T16:48:55.507Z,100731.20
2023-05-24T16:51:22.737Z,100731.91
2023-05-24T16:53:49.756Z,100729.48
2023-05-24T16:56:16.737Z,100729.33
2023-05-24T16:58:43.777Z,100730.06
2023-05-24T17:01:10.769Z,100733.59
2023-05-24T17:03:37.803Z,100735.91
2023-05-24T17:06:05.271Z,100737.34
2023-05-24T17:08:36.592Z,100734.87
2023-05-24T17:11:04.695Z,100734.00
2023-05-24T17:13:31.878Z,100732.93
2023-05-24T17:15:59.704Z,100734.55
2023-05-24T17:18:29.929Z,100738.06
2023-05-24T17:20:59.484Z,100735.27
2023-05-24T17:23:28.102Z,100728.42
2023-05-24T17:25:55.285Z,100732.99
2023-05-24T17:28:29.510Z,100733.67
2023-05-24T17:30:58.202Z,100741.24
2023-05-24T17:33:28.047Z,100741.21
2023-05-24T17:35:56.342Z,100741.70
2023-05-24T17:38:24.461Z,100740.98
2023-05-24T17:40:58.769Z,100747.36
2023-05-24T17:43:31.541Z,100749.69
2023-05-24T17:46:03.222Z,100752.89
2023-05-24T17:48:38.186Z,100756.08
2023-05-24T17:51:07.742Z,100757.48
2023-05-24T17:53:37.557Z,100757.33
2023-05-24T17:56:05.096Z,100758.23
2023-05-24T17:58:35.185Z,100757.40
2023-05-24T18:01:04.591Z,100756.90
2023-05-24T18:03:33.032Z,100760.25
2023-05-24T18:06:00.653Z,100761.86
2023-05-24T18:08:27.718Z,100762.93
2023-05-24T18:10:54.832Z,100760.32
2023-05-24T18:13:22.342Z,100764.21
2023-05-24T18:15:50.460Z,100765.65
2023-05-24T18:18:17.559Z,100768.46
2023-05-24T18:20:44.614Z,100769.20
2023-05-24T18:23:11.770Z,100766.95
2023-05-24T18:25:38.913Z,100768.01
2023-05-24T18:28:06.852Z,100773.11
2023-05-24T18:30:33.823Z,100774.70
2023-05-24T18:33:07.087Z,100777.86
2023-05-24T18:35:35.600Z,100779.45
2023-05-24T18:38:03.936Z,100782.98
2023-05-24T18:40:30.999Z,100786.86
2023-05-24T18:42:57.960Z,100783.34
2023-05-24T18:50:08.741Z,100786.75
2023-05-24T18:52:36.157Z,100789.56
2023-05-24T18:55:10.130Z,100792.04
2023-05-24T18:57:42.252Z,100797.66
2023-05-24T19:00:10.493Z,100795.58
2023-05-24T19:02:38.417Z,100792.95
2023-05-24T19:05:08.839Z,100790.49
2023-05-24T19:07:36.104Z,100798.80
2023-05-24T19:10:13.751Z,100796.52
2023-05-24T19:12:41.382Z,100800.76
2023-05-24T19:15:17.866Z,100803.58
2023-05-24T19:17:46.958Z,100806.95
2023-05-24T19:20:20.882Z,100800.79
2023-05-24T20:19:18.707Z,100830.47
2023-05-24T20:24:40.449Z,100832.55
2023-05-24T20:27:14.092Z,100832.89
2023-05-24T20:30:17.207Z,100831.83
2023-05-24T20:32:48.805Z,100834.10
2023-05-24T20:35:16.298Z,100824.08
2023-05-24T20:37:43.520Z,100827.04
2023-05-24T20:40:13.954Z,100826.67
2023-05-24T20:43:05.915Z,100831.73
2023-05-24T20:48:27.504Z,100822.70
2023-05-24T20:51:27.829Z,100823.92
2023-05-24T21:01:23.643Z,100828.27
2023-05-24T21:04:33.154Z,100820.84
2023-05-24T21:08:18.193Z,100838.95
2023-05-24T21:10:46.951Z,100837.00
2023-05-24T21:13:16.034Z,100836.63
2023-05-24T21:15:45.530Z,100832.06
2023-05-24T21:18:17.322Z,100836.81
2023-05-24T21:20:46.479Z,100838.71
2023-05-24T21:24:00.437Z,100836.58
2023-05-24T21:26:27.626Z,100839.51
2023-05-24T21:35:19.781Z,100844.77
2023-05-24T21:42:13.825Z,100845.95
2023-05-24T21:48:44.812Z,100848.14
2023-05-24T21:51:23.571Z,100849.15
2023-05-24T21:53:53.106Z,100852.30
2023-05-24T21:56:20.865Z,100855.77
2023-05-24T21:58:48.706Z,100851.73
2023-05-24T22:01:16.833Z,100849.78
2023-05-24T22:03:44.248Z,100852.77
2023-05-24T22:06:11.549Z,100853.98
2023-05-24T22:08:38.672Z,100857.33
2023-05-24T22:11:06.661Z,100857.49
2023-05-24T22:13:34.500Z,100857.84
2023-05-24T22:16:01.828Z,100857.99
2023-05-24T22:18:31.907Z,100857.27
2023-05-24T22:20:59.553Z,100846.15
2023-05-24T22:23:29.702Z,100851.42
2023-05-24T22:25:58.037Z,100862.30
2023-05-24T22:31:46.484Z,100863.67
2023-05-24T22:34:13.728Z,100861.56
2023-05-24T22:36:44.746Z,100863.80
2023-05-24T22:39:15.745Z,100858.99
2023-05-24T22:41:44.523Z,100868.29
2023-05-24T22:44:13.402Z,100866.31
2023-05-24T22:46:42.269Z,100871.33
2023-05-24T22:49:12.882Z,100878.50
2023-05-24T22:51:44.125Z,100876.39
2023-05-24T22:54:13.258Z,100878.49
2023-05-24T22:56:41.975Z,100878.83
2023-05-24T22:59:10.402Z,100876.18
2023-05-24T23:01:37.799Z,100876.70
2023-05-24T23:04:19.677Z,100876.84
2023-05-24T23:06:53.426Z,100876.26
2023-05-24T23:09:34.210Z,100873.24
2023-05-24T23:12:06.837Z,100879.70
2023-05-24T23:14:37.919Z,100874.43
2023-05-24T23:17:15.640Z,100875.30
2023-05-24T23:19:43.273Z,100877.41
2023-05-24T23:22:23.065Z,100874.08
2023-05-24T23:24:50.171Z,100866.52
2023-05-24T23:27:17.606Z,100869.84
2023-05-24T23:29:44.661Z,100869.81
2023-05-24T23:32:11.736Z,100872.27
2023-05-24T23:34:38.889Z,100875.25
2023-05-24T23:37:07.553Z,100873.33
2023-05-24T23:39:34.668Z,100875.98
2023-05-24T23:42:02.022Z,100877.89
2023-05-24T23:44:29.370Z,100880.83
2023-05-24T23:46:57.521Z,100880.27
2023-05-24T23:49:25.245Z,100885.02
2023-05-24T23:51:52.240Z,100887.80
2023-05-24T23:54:23.457Z,100888.16
2023-05-24T23:56:50.887Z,100885.89
2023-05-24T23:59:20.442Z,100891.65
